sensor_id;sensor_type;location;lat;lon;timestamp;P1;durP1;ratioP1;P2;durP2;ratioP2
66751;SDS011;53663;42.676;23.238;2023-04-24T00:02:12;10.75;;;6.43;;
66751;SDS011;53663;42.676;23.238;2023-04-24T00:04:38;12.30;;;7.00;;
66751;SDS011;53663;42.676;23.238;2023-04-24T00:07:05;12.15;;;5.88;;
66751;SDS011;53663;42.676;23.238;2023-04-24T00:09:32;12.93;;;6.53;;
66751;SDS011;53663;42.676;23.238;2023-04-24T00:11:58;13.00;;;6.28;;
66751;SDS011;53663;42.676;23.238;2023-04-24T00:14:24;10.70;;;6.38;;
66751;SDS011;53663;42.676;23.238;2023-04-24T00:16:49;9.38;;;6.28;;
66751;SDS011;53663;42.676;23.238;2023-04-24T00:19:15;12.40;;;6.40;;
66751;SDS011;53663;42.676;23.238;2023-04-24T00:21:41;9.23;;;6.03;;
66751;SDS011;53663;42.676;23.238;2023-04-24T00:24:07;11.15;;;5.85;;
66751;SDS011;53663;42.676;23.238;2023-04-24T00:26:34;16.42;;;5.78;;
66751;SDS011;53663;42.676;23.238;2023-04-24T00:28:59;10.93;;;6.15;;
66751;SDS011;53663;42.676;23.238;2023-04-24T00:31:26;9.80;;;5.40;;
66751;SDS011;53663;42.676;23.238;2023-04-24T00:33:51;11.52;;;6.10;;
66751;SDS011;53663;42.676;23.238;2023-04-24T00:36:17;11.98;;;6.05;;
66751;SDS011;53663;42.676;23.238;2023-04-24T00:38:44;11.48;;;6.85;;
66751;SDS011;53663;42.676;23.238;2023-04-24T00:41:10;11.68;;;6.50;;
66751;SDS011;53663;42.676;23.238;2023-04-24T00:43:36;15.23;;;6.60;;
66751;SDS011;53663;42.676;23.238;2023-04-24T00:46:01;13.93;;;6.68;;
66751;SDS011;53663;42.676;23.238;2023-04-24T00:48:27;8.75;;;5.97;;
66751;SDS011;53663;42.676;23.238;2023-04-24T00:50:53;12.32;;;5.70;;
66751;SDS011;53663;42.676;23.238;2023-04-24T00:53:19;13.70;;;6.20;;
66751;SDS011;53663;42.676;23.238;2023-04-24T00:55:45;20.90;;;6.25;;
66751;SDS011;53663;42.676;23.238;2023-04-24T00:58:12;10.65;;;5.90;;
66751;SDS011;53663;42.676;23.238;2023-04-24T01:00:38;15.63;;;6.82;;
66751;SDS011;53663;42.676;23.238;2023-04-24T01:03:04;16.17;;;6.85;;
66751;SDS011;53663;42.676;23.238;2023-04-24T01:05:31;17.02;;;7.10;;
66751;SDS011;53663;42.676;23.238;2023-04-24T01:07:58;17.25;;;6.88;;
66751;SDS011;53663;42.676;23.238;2023-04-24T01:10:24;10.95;;;7.00;;
66751;SDS011;53663;42.676;23.238;2023-04-24T01:12:52;12.82;;;7.15;;
66751;SDS011;53663;42.676;23.238;2023-04-24T01:15:18;10.35;;;6.40;;
66751;SDS011;53663;42.676;23.238;2023-04-24T01:17:45;13.75;;;7.32;;
66751;SDS011;53663;42.676;23.238;2023-04-24T01:20:13;14.00;;;7.22;;
66751;SDS011;53663;42.676;23.238;2023-04-24T01:22:40;10.35;;;6.95;;
66751;SDS011;53663;42.676;23.238;2023-04-24T01:25:06;11.35;;;7.07;;
66751;SDS011;53663;42.676;23.238;2023-04-24T01:27:32;11.65;;;7.38;;
66751;SDS011;53663;42.676;23.238;2023-04-24T01:29:57;11.27;;;6.90;;
66751;SDS011;53663;42.676;23.238;2023-04-24T01:32:23;12.13;;;7.60;;
66751;SDS011;53663;42.676;23.238;2023-04-24T01:34:49;13.80;;;6.55;;
66751;SDS011;53663;42.676;23.238;2023-04-24T01:37:16;7.72;;;5.50;;
66751;SDS011;53663;42.676;23.238;2023-04-24T01:39:42;13.82;;;6.03;;
66751;SDS011;53663;42.676;23.238;2023-04-24T01:42:08;10.98;;;6.15;;
66751;SDS011;53663;42.676;23.238;2023-04-24T01:44:34;15.95;;;6.63;;
66751;SDS011;53663;42.676;23.238;2023-04-24T01:47:02;14.45;;;6.55;;
66751;SDS011;53663;42.676;23.238;2023-04-24T01:49:29;8.85;;;6.00;;
66751;SDS011;53663;42.676;23.238;2023-04-24T01:51:55;15.63;;;6.80;;
66751;SDS011;53663;42.676;23.238;2023-04-24T01:54:21;9.90;;;5.88;;
66751;SDS011;53663;42.676;23.238;2023-04-24T01:56:46;10.60;;;6.03;;
66751;SDS011;53663;42.676;23.238;2023-04-24T01:59:12;8.63;;;5.70;;
66751;SDS011;53663;42.676;23.238;2023-04-24T02:01:38;10.73;;;5.78;;
66751;SDS011;53663;42.676;23.238;2023-04-24T02:04:04;14.82;;;6.00;;
66751;SDS011;53663;42.676;23.238;2023-04-24T02:06:30;16.08;;;5.82;;
66751;SDS011;53663;42.676;23.238;2023-04-24T02:08:57;11.57;;;5.57;;
66751;SDS011;53663;42.676;23.238;2023-04-24T02:11:23;14.55;;;5.70;;
66751;SDS011;53663;42.676;23.238;2023-04-24T02:13:50;9.02;;;5.75;;
66751;SDS011;53663;42.676;23.238;2023-04-24T02:16:16;10.43;;;5.88;;
66751;SDS011;53663;42.676;23.238;2023-04-24T02:18:42;10.52;;;6.10;;
66751;SDS011;53663;42.676;23.238;2023-04-24T02:21:08;9.38;;;6.10;;
66751;SDS011;53663;42.676;23.238;2023-04-24T02:23:34;13.32;;;6.05;;
66751;SDS011;53663;42.676;23.238;2023-04-24T02:25:59;11.45;;;6.80;;
66751;SDS011;53663;42.676;23.238;2023-04-24T02:28:25;13.48;;;6.38;;
66751;SDS011;53663;42.676;23.238;2023-04-24T02:30:50;10.25;;;6.30;;
66751;SDS011;53663;42.676;23.238;2023-04-24T02:33:16;9.55;;;5.90;;
66751;SDS011;53663;42.676;23.238;2023-04-24T02:35:42;11.90;;;6.15;;
66751;SDS011;53663;42.676;23.238;2023-04-24T02:38:07;12.00;;;6.75;;
66751;SDS011;53663;42.676;23.238;2023-04-24T02:40:35;15.60;;;6.53;;
66751;SDS011;53663;42.676;23.238;2023-04-24T02:43:00;11.48;;;6.32;;
66751;SDS011;53663;42.676;23.238;2023-04-24T02:45:25;11.00;;;6.50;;
66751;SDS011;53663;42.676;23.238;2023-04-24T02:47:52;13.57;;;6.63;;
66751;SDS011;53663;42.676;23.238;2023-04-24T02:50:18;13.43;;;6.57;;
66751;SDS011;53663;42.676;23.238;2023-04-24T02:52:43;9.05;;;6.18;;
66751;SDS011;53663;42.676;23.238;2023-04-24T02:55:09;10.48;;;6.18;;
66751;SDS011;53663;42.676;23.238;2023-04-24T02:57:34;9.77;;;5.80;;
66751;SDS011;53663;42.676;23.238;2023-04-24T03:00:00;11.50;;;6.45;;
66751;SDS011;53663;42.676;23.238;2023-04-24T03:02:25;12.73;;;5.80;;
66751;SDS011;53663;42.676;23.238;2023-04-24T03:04:51;10.60;;;5.80;;
66751;SDS011;53663;42.676;23.238;2023-04-24T03:07:16;11.05;;;5.97;;
66751;SDS011;53663;42.676;23.238;2023-04-24T03:09:46;12.15;;;5.97;;
66751;SDS011;53663;42.676;23.238;2023-04-24T03:12:14;9.27;;;5.75;;
66751;SDS011;53663;42.676;23.238;2023-04-24T03:14:39;13.00;;;5.53;;
66751;SDS011;53663;42.676;23.238;2023-04-24T03:17:05;10.43;;;6.60;;
66751;SDS011;53663;42.676;23.238;2023-04-24T03:19:30;9.32;;;6.03;;
66751;SDS011;53663;42.676;23.238;2023-04-24T03:22:02;11.70;;;5.90;;
66751;SDS011;53663;42.676;23.238;2023-04-24T03:24:29;9.93;;;6.35;;
66751;SDS011;53663;42.676;23.238;2023-04-24T03:26:55;14.20;;;7.80;;
66751;SDS011;53663;42.676;23.238;2023-04-24T03:29:44;9.80;;;6.10;;
66751;SDS011;53663;42.676;23.238;2023-04-24T03:32:11;18.20;;;6.78;;
66751;SDS011;53663;42.676;23.238;2023-04-24T03:34:37;8.25;;;5.75;;
66751;SDS011;53663;42.676;23.238;2023-04-24T03:37:03;10.88;;;6.40;;
66751;SDS011;53663;42.676;23.238;2023-04-24T03:39:30;16.15;;;6.10;;
66751;SDS011;53663;42.676;23.238;2023-04-24T03:41:56;11.73;;;5.88;;
66751;SDS011;53663;42.676;23.238;2023-04-24T03:44:28;9.63;;;6.60;;
66751;SDS011;53663;42.676;23.238;2023-04-24T03:46:54;12.15;;;6.10;;
66751;SDS011;53663;42.676;23.238;2023-04-24T03:49:22;14.75;;;6.25;;
66751;SDS011;53663;42.676;23.238;2023-04-24T03:51:47;9.10;;;6.05;;
66751;SDS011;53663;42.676;23.238;2023-04-24T03:54:18;10.35;;;6.32;;
66751;SDS011;53663;42.676;23.238;2023-04-24T03:56:44;13.02;;;6.40;;
66751;SDS011;53663;42.676;23.238;2023-04-24T03:59:10;13.10;;;6.85;;
66751;SDS011;53663;42.676;23.238;2023-04-24T04:01:38;13.82;;;5.90;;
66751;SDS011;53663;42.676;23.238;2023-04-24T04:04:10;8.80;;;5.93;;
66751;SDS011;53663;42.676;23.238;2023-04-24T04:06:37;12.63;;;5.45;;
66751;SDS011;53663;42.676;23.238;2023-04-24T04:09:03;11.65;;;5.68;;
66751;SDS011;53663;42.676;23.238;2023-04-24T04:11:29;8.65;;;5.55;;
66751;SDS011;53663;42.676;23.238;2023-04-24T04:13:55;9.15;;;5.22;;
66751;SDS011;53663;42.676;23.238;2023-04-24T04:16:22;12.80;;;5.85;;
66751;SDS011;53663;42.676;23.238;2023-04-24T04:18:50;10.48;;;5.70;;
66751;SDS011;53663;42.676;23.238;2023-04-24T04:21:16;10.45;;;5.65;;
66751;SDS011;53663;42.676;23.238;2023-04-24T04:23:42;11.43;;;6.38;;
66751;SDS011;53663;42.676;23.238;2023-04-24T04:26:13;16.45;;;6.75;;
66751;SDS011;53663;42.676;23.238;2023-04-24T04:29:01;15.15;;;6.97;;
66751;SDS011;53663;42.676;23.238;2023-04-24T04:31:29;15.77;;;8.00;;
66751;SDS011;53663;42.676;23.238;2023-04-24T04:33:57;14.13;;;7.13;;
66751;SDS011;53663;42.676;23.238;2023-04-24T04:36:23;17.55;;;5.70;;
66751;SDS011;53663;42.676;23.238;2023-04-24T04:38:54;10.48;;;5.82;;
66751;SDS011;53663;42.676;23.238;2023-04-24T04:41:41;14.70;;;5.80;;
66751;SDS011;53663;42.676;23.238;2023-04-24T04:44:08;11.25;;;6.20;;
66751;SDS011;53663;42.676;23.238;2023-04-24T04:46:35;12.30;;;5.72;;
66751;SDS011;53663;42.676;23.238;2023-04-24T04:49:19;10.40;;;5.60;;
66751;SDS011;53663;42.676;23.238;2023-04-24T04:51:46;14.60;;;6.15;;
66751;SDS011;53663;42.676;23.238;2023-04-24T04:54:12;14.88;;;5.82;;
66751;SDS011;53663;42.676;23.238;2023-04-24T04:56:38;14.95;;;6.45;;
66751;SDS011;53663;42.676;23.238;2023-04-24T04:59:03;17.17;;;6.80;;
66751;SDS011;53663;42.676;23.238;2023-04-24T05:01:29;12.80;;;5.25;;
66751;SDS011;53663;42.676;23.238;2023-04-24T05:03:55;15.48;;;5.53;;
66751;SDS011;53663;42.676;23.238;2023-04-24T05:06:20;12.50;;;5.82;;
66751;SDS011;53663;42.676;23.238;2023-04-24T05:08:46;16.70;;;5.95;;
66751;SDS011;53663;42.676;23.238;2023-04-24T05:11:23;12.43;;;5.53;;
66751;SDS011;53663;42.676;23.238;2023-04-24T05:13:49;12.45;;;5.88;;
66751;SDS011;53663;42.676;23.238;2023-04-24T05:16:18;12.32;;;5.80;;
66751;SDS011;53663;42.676;23.238;2023-04-24T05:18:44;17.70;;;5.32;;
66751;SDS011;53663;42.676;23.238;2023-04-24T05:21:13;15.55;;;6.07;;
66751;SDS011;53663;42.676;23.238;2023-04-24T05:23:40;8.48;;;5.28;;
66751;SDS011;53663;42.676;23.238;2023-04-24T05:26:06;13.55;;;5.68;;
66751;SDS011;53663;42.676;23.238;2023-04-24T05:28:32;14.77;;;6.03;;
66751;SDS011;53663;42.676;23.238;2023-04-24T05:31:05;10.80;;;5.68;;
66751;SDS011;53663;42.676;23.238;2023-04-24T05:33:31;18.95;;;6.45;;
66751;SDS011;53663;42.676;23.238;2023-04-24T05:35:57;13.93;;;5.38;;
66751;SDS011;53663;42.676;23.238;2023-04-24T05:38:23;13.75;;;5.53;;
66751;SDS011;53663;42.676;23.238;2023-04-24T05:40:48;11.15;;;5.15;;
66751;SDS011;53663;42.676;23.238;2023-04-24T05:43:14;10.48;;;5.05;;
66751;SDS011;53663;42.676;23.238;2023-04-24T05:45:40;10.23;;;5.03;;
66751;SDS011;53663;42.676;23.238;2023-04-24T05:48:05;13.55;;;5.63;;
66751;SDS011;53663;42.676;23.238;2023-04-24T05:50:31;13.63;;;5.28;;
66751;SDS011;53663;42.676;23.238;2023-04-24T05:52:57;12.68;;;5.60;;
66751;SDS011;53663;42.676;23.238;2023-04-24T05:55:30;12.20;;;5.72;;
66751;SDS011;53663;42.676;23.238;2023-04-24T05:57:56;9.93;;;5.72;;
66751;SDS011;53663;42.676;23.238;2023-04-24T06:00:23;11.93;;;4.88;;
66751;SDS011;53663;42.676;23.238;2023-04-24T06:02:57;10.40;;;5.40;;
66751;SDS011;53663;42.676;23.238;2023-04-24T06:05:24;10.70;;;5.85;;
66751;SDS011;53663;42.676;23.238;2023-04-24T06:07:52;13.85;;;5.43;;
66751;SDS011;53663;42.676;23.238;2023-04-24T06:10:19;10.27;;;4.50;;
66751;SDS011;53663;42.676;23.238;2023-04-24T06:12:45;12.27;;;4.57;;
66751;SDS011;53663;42.676;23.238;2023-04-24T06:17:50;17.30;;;4.65;;
66751;SDS011;53663;42.676;23.238;2023-04-24T06:20:16;12.95;;;4.97;;
66751;SDS011;53663;42.676;23.238;2023-04-24T06:22:42;13.73;;;5.53;;
66751;SDS011;53663;42.676;23.238;2023-04-24T06:25:09;14.18;;;7.13;;
66751;SDS011;53663;42.676;23.238;2023-04-24T06:27:35;17.00;;;6.05;;
66751;SDS011;53663;42.676;23.238;2023-04-24T06:30:00;14.48;;;6.30;;
66751;SDS011;53663;42.676;23.238;2023-04-24T06:32:26;13.70;;;7.07;;
66751;SDS011;53663;42.676;23.238;2023-04-24T06:34:52;17.00;;;6.45;;
66751;SDS011;53663;42.676;23.238;2023-04-24T06:37:18;14.77;;;8.45;;
66751;SDS011;53663;42.676;23.238;2023-04-24T06:39:47;12.95;;;7.78;;
66751;SDS011;53663;42.676;23.238;2023-04-24T06:42:13;16.08;;;9.10;;
66751;SDS011;53663;42.676;23.238;2023-04-24T06:44:40;25.23;;;8.23;;
66751;SDS011;53663;42.676;23.238;2023-04-24T06:47:08;12.85;;;7.15;;
66751;SDS011;53663;42.676;23.238;2023-04-24T06:49:38;18.83;;;7.15;;
66751;SDS011;53663;42.676;23.238;2023-04-24T06:52:03;13.95;;;6.60;;
66751;SDS011;53663;42.676;23.238;2023-04-24T06:54:29;14.02;;;6.10;;
66751;SDS011;53663;42.676;23.238;2023-04-24T06:56:56;15.00;;;5.72;;
66751;SDS011;53663;42.676;23.238;2023-04-24T06:59:23;12.20;;;6.50;;
66751;SDS011;53663;42.676;23.238;2023-04-24T07:01:49;14.30;;;6.20;;
66751;SDS011;53663;42.676;23.238;2023-04-24T07:04:14;14.75;;;5.95;;
66751;SDS011;53663;42.676;23.238;2023-04-24T07:06:40;15.20;;;5.75;;
66751;SDS011;53663;42.676;23.238;2023-04-24T07:09:05;12.02;;;6.68;;
66751;SDS011;53663;42.676;23.238;2023-04-24T07:11:31;13.63;;;6.35;;
66751;SDS011;53663;42.676;23.238;2023-04-24T07:13:57;15.70;;;6.30;;
66751;SDS011;53663;42.676;23.238;2023-04-24T07:16:23;14.77;;;6.60;;
66751;SDS011;53663;42.676;23.238;2023-04-24T07:18:49;13.30;;;6.72;;
66751;SDS011;53663;42.676;23.238;2023-04-24T07:21:14;13.60;;;6.50;;
66751;SDS011;53663;42.676;23.238;2023-04-24T07:23:39;14.90;;;8.05;;
66751;SDS011;53663;42.676;23.238;2023-04-24T07:26:06;16.92;;;5.93;;
66751;SDS011;53663;42.676;23.238;2023-04-24T07:28:32;14.45;;;5.10;;
66751;SDS011;53663;42.676;23.238;2023-04-24T07:30:57;19.95;;;6.05;;
66751;SDS011;53663;42.676;23.238;2023-04-24T07:33:25;9.45;;;5.88;;
66751;SDS011;53663;42.676;23.238;2023-04-24T07:35:51;11.20;;;4.93;;
66751;SDS011;53663;42.676;23.238;2023-04-24T07:38:17;12.77;;;5.20;;
66751;SDS011;53663;42.676;23.238;2023-04-24T07:40:45;14.10;;;5.95;;
66751;SDS011;53663;42.676;23.238;2023-04-24T07:43:10;10.70;;;5.20;;
66751;SDS011;53663;42.676;23.238;2023-04-24T07:45:36;10.05;;;5.55;;
66751;SDS011;53663;42.676;23.238;2023-04-24T07:48:02;10.38;;;5.55;;
66751;SDS011;53663;42.676;23.238;2023-04-24T07:50:28;22.15;;;11.90;;
66751;SDS011;53663;42.676;23.238;2023-04-24T07:52:54;14.98;;;5.55;;
66751;SDS011;53663;42.676;23.238;2023-04-24T07:55:19;12.88;;;5.57;;
66751;SDS011;53663;42.676;23.238;2023-04-24T07:57:45;23.10;;;8.55;;
66751;SDS011;53663;42.676;23.238;2023-04-24T08:00:11;16.63;;;5.53;;
66751;SDS011;53663;42.676;23.238;2023-04-24T08:02:36;9.25;;;5.20;;
66751;SDS011;53663;42.676;23.238;2023-04-24T08:05:02;8.90;;;4.57;;
66751;SDS011;53663;42.676;23.238;2023-04-24T08:07:28;12.80;;;5.25;;
66751;SDS011;53663;42.676;23.238;2023-04-24T08:09:54;15.13;;;5.15;;
66751;SDS011;53663;42.676;23.238;2023-04-24T08:12:19;11.85;;;5.43;;
66751;SDS011;53663;42.676;23.238;2023-04-24T08:14:45;14.38;;;6.10;;
66751;SDS011;53663;42.676;23.238;2023-04-24T08:17:10;14.30;;;7.22;;
66751;SDS011;53663;42.676;23.238;2023-04-24T08:19:36;17.98;;;7.78;;
66751;SDS011;53663;42.676;23.238;2023-04-24T08:22:01;12.57;;;6.75;;
66751;SDS011;53663;42.676;23.238;2023-04-24T08:24:29;15.93;;;7.50;;
66751;SDS011;53663;42.676;23.238;2023-04-24T08:26:54;10.50;;;5.32;;
66751;SDS011;53663;42.676;23.238;2023-04-24T08:29:21;32.53;;;6.40;;
66751;SDS011;53663;42.676;23.238;2023-04-24T08:31:47;18.25;;;5.70;;
66751;SDS011;53663;42.676;23.238;2023-04-24T08:34:12;10.90;;;5.43;;
66751;SDS011;53663;42.676;23.238;2023-04-24T08:36:38;12.50;;;6.53;;
66751;SDS011;53663;42.676;23.238;2023-04-24T08:39:05;14.20;;;5.72;;
66751;SDS011;53663;42.676;23.238;2023-04-24T08:41:31;18.98;;;6.15;;
66751;SDS011;53663;42.676;23.238;2023-04-24T08:43:59;10.43;;;5.72;;
66751;SDS011;53663;42.676;23.238;2023-04-24T08:46:27;11.23;;;5.65;;
66751;SDS011;53663;42.676;23.238;2023-04-24T08:48:53;14.35;;;5.68;;
66751;SDS011;53663;42.676;23.238;2023-04-24T08:51:19;13.07;;;5.13;;
66751;SDS011;53663;42.676;23.238;2023-04-24T08:53:45;14.13;;;5.55;;
66751;SDS011;53663;42.676;23.238;2023-04-24T08:56:11;11.38;;;5.05;;
66751;SDS011;53663;42.676;23.238;2023-04-24T08:58:38;13.52;;;5.25;;
66751;SDS011;53663;42.676;23.238;2023-04-24T09:01:04;9.65;;;4.93;;
66751;SDS011;53663;42.676;23.238;2023-04-24T09:03:30;9.52;;;4.68;;
66751;SDS011;53663;42.676;23.238;2023-04-24T09:05:58;12.07;;;6.03;;
66751;SDS011;53663;42.676;23.238;2023-04-24T09:08:25;14.32;;;5.15;;
66751;SDS011;53663;42.676;23.238;2023-04-24T09:10:51;11.45;;;5.13;;
66751;SDS011;53663;42.676;23.238;2023-04-24T09:13:17;11.77;;;4.72;;
66751;SDS011;53663;42.676;23.238;2023-04-24T09:15:44;9.15;;;5.30;;
66751;SDS011;53663;42.676;23.238;2023-04-24T09:18:10;9.32;;;4.95;;
66751;SDS011;53663;42.676;23.238;2023-04-24T09:20:56;19.48;;;5.28;;
66751;SDS011;53663;42.676;23.238;2023-04-24T09:23:29;11.55;;;4.57;;
66751;SDS011;53663;42.676;23.238;2023-04-24T09:25:56;14.25;;;5.07;;
66751;SDS011;53663;42.676;23.238;2023-04-24T09:28:40;13.00;;;4.63;;
66751;SDS011;53663;42.676;23.238;2023-04-24T09:33:42;12.73;;;4.40;;
66751;SDS011;53663;42.676;23.238;2023-04-24T09:36:19;9.25;;;4.47;;
66751;SDS011;53663;42.676;23.238;2023-04-24T09:38:44;9.07;;;4.72;;
66751;SDS011;53663;42.676;23.238;2023-04-24T09:41:13;14.60;;;4.25;;
66751;SDS011;53663;42.676;23.238;2023-04-24T09:43:39;10.30;;;4.80;;
66751;SDS011;53663;42.676;23.238;2023-04-24T09:46:05;8.60;;;4.85;;
66751;SDS011;53663;42.676;23.238;2023-04-24T09:48:34;9.52;;;4.18;;
66751;SDS011;53663;42.676;23.238;2023-04-24T09:51:04;7.05;;;4.25;;
66751;SDS011;53663;42.676;23.238;2023-04-24T09:53:37;7.45;;;3.38;;
66751;SDS011;53663;42.676;23.238;2023-04-24T09:56:08;9.13;;;4.63;;
66751;SDS011;53663;42.676;23.238;2023-04-24T09:58:35;6.10;;;2.92;;
66751;SDS011;53663;42.676;23.238;2023-04-24T10:01:01;8.35;;;4.18;;
66751;SDS011;53663;42.676;23.238;2023-04-24T10:03:31;4.97;;;3.00;;
66751;SDS011;53663;42.676;23.238;2023-04-24T10:06:00;7.75;;;2.90;;
66751;SDS011;53663;42.676;23.238;2023-04-24T10:08:32;11.55;;;3.03;;
66751;SDS011;53663;42.676;23.238;2023-04-24T10:11:00;7.60;;;3.10;;
66751;SDS011;53663;42.676;23.238;2023-04-24T10:32:16;4.45;;;2.60;;
66751;SDS011;53663;42.676;23.238;2023-04-24T10:34:41;8.88;;;3.00;;
66751;SDS011;53663;42.676;23.238;2023-04-24T10:37:08;5.72;;;2.80;;
66751;SDS011;53663;42.676;23.238;2023-04-24T10:39:33;5.60;;;2.90;;
66751;SDS011;53663;42.676;23.238;2023-04-24T10:42:00;10.02;;;3.00;;
66751;SDS011;53663;42.676;23.238;2023-04-24T10:44:27;7.03;;;2.90;;
66751;SDS011;53663;42.676;23.238;2023-04-24T10:47:01;9.90;;;2.80;;
66751;SDS011;53663;42.676;23.238;2023-04-24T10:49:30;7.32;;;2.70;;
66751;SDS011;53663;42.676;23.238;2023-04-24T10:52:00;6.57;;;3.50;;
66751;SDS011;53663;42.676;23.238;2023-04-24T10:54:36;6.53;;;3.05;;
66751;SDS011;53663;42.676;23.238;2023-04-24T10:59:44;6.10;;;2.63;;
66751;SDS011;53663;42.676;23.238;2023-04-24T11:02:11;8.60;;;2.50;;
66751;SDS011;53663;42.676;23.238;2023-04-24T11:04:40;5.13;;;2.65;;
66751;SDS011;53663;42.676;23.238;2023-04-24T11:07:08;7.03;;;2.90;;
66751;SDS011;53663;42.676;23.238;2023-04-24T11:09:35;5.55;;;2.85;;
66751;SDS011;53663;42.676;23.238;2023-04-24T11:12:05;12.45;;;3.03;;
66751;SDS011;53663;42.676;23.238;2023-04-24T11:17:34;8.50;;;2.58;;
66751;SDS011;53663;42.676;23.238;2023-04-24T11:20:06;6.00;;;2.80;;
66751;SDS011;53663;42.676;23.238;2023-04-24T11:22:34;10.27;;;3.53;;
66751;SDS011;53663;42.676;23.238;2023-04-24T11:25:02;4.43;;;2.85;;
66751;SDS011;53663;42.676;23.238;2023-04-24T11:27:30;3.70;;;2.75;;
66751;SDS011;53663;42.676;23.238;2023-04-24T11:34:50;4.72;;;3.08;;
66751;SDS011;53663;42.676;23.238;2023-04-24T11:37:18;7.15;;;3.58;;
66751;SDS011;53663;42.676;23.238;2023-04-24T11:39:43;5.30;;;3.28;;
66751;SDS011;53663;42.676;23.238;2023-04-24T11:42:09;10.68;;;4.15;;
66751;SDS011;53663;42.676;23.238;2023-04-24T11:44:35;7.93;;;3.88;;
66751;SDS011;53663;42.676;23.238;2023-04-24T11:47:06;6.80;;;3.97;;
66751;SDS011;53663;42.676;23.238;2023-04-24T11:49:33;8.20;;;3.58;;
66751;SDS011;53663;42.676;23.238;2023-04-24T11:52:01;6.30;;;3.90;;
66751;SDS011;53663;42.676;23.238;2023-04-24T11:54:27;9.27;;;3.88;;
66751;SDS011;53663;42.676;23.238;2023-04-24T11:56:52;7.05;;;3.58;;
66751;SDS011;53663;42.676;23.238;2023-04-24T11:59:18;10.80;;;3.78;;
66751;SDS011;53663;42.676;23.238;2023-04-24T12:01:47;5.88;;;3.53;;
66751;SDS011;53663;42.676;23.238;2023-04-24T12:04:14;4.87;;;2.90;;
66751;SDS011;53663;42.676;23.238;2023-04-24T12:07:02;3.17;;;2.63;;
66751;SDS011;53663;42.676;23.238;2023-04-24T12:12:12;7.80;;;3.17;;
66751;SDS011;53663;42.676;23.238;2023-04-24T12:14:43;4.53;;;2.90;;
66751;SDS011;53663;42.676;23.238;2023-04-24T12:17:09;4.07;;;2.75;;
66751;SDS011;53663;42.676;23.238;2023-04-24T12:19:35;10.63;;;2.97;;
66751;SDS011;53663;42.676;23.238;2023-04-24T12:22:01;5.05;;;2.65;;
66751;SDS011;53663;42.676;23.238;2023-04-24T12:24:28;5.88;;;3.00;;
66751;SDS011;53663;42.676;23.238;2023-04-24T12:26:55;5.75;;;2.95;;
66751;SDS011;53663;42.676;23.238;2023-04-24T12:29:21;3.38;;;2.50;;
66751;SDS011;53663;42.676;23.238;2023-04-24T12:31:47;4.15;;;2.63;;
66751;SDS011;53663;42.676;23.238;2023-04-24T12:34:22;4.80;;;2.70;;
66751;SDS011;53663;42.676;23.238;2023-04-24T12:36:50;6.85;;;2.78;;
66751;SDS011;53663;42.676;23.238;2023-04-24T12:39:19;6.32;;;2.80;;
66751;SDS011;53663;42.676;23.238;2023-04-24T12:41:57;7.40;;;2.97;;
66751;SDS011;53663;42.676;23.238;2023-04-24T12:44:33;4.90;;;3.20;;
66751;SDS011;53663;42.676;23.238;2023-04-24T12:47:00;6.47;;;2.92;;
66751;SDS011;53663;42.676;23.238;2023-04-24T12:49:27;7.32;;;3.28;;
66751;SDS011;53663;42.676;23.238;2023-04-24T12:51:53;6.00;;;3.08;;
66751;SDS011;53663;42.676;23.238;2023-04-24T12:54:19;4.43;;;3.13;;
66751;SDS011;53663;42.676;23.238;2023-04-24T12:56:44;7.88;;;3.17;;
66751;SDS011;53663;42.676;23.238;2023-04-24T12:59:10;5.22;;;3.20;;
66751;SDS011;53663;42.676;23.238;2023-04-24T13:01:36;6.97;;;3.33;;
66751;SDS011;53663;42.676;23.238;2023-04-24T13:04:01;6.47;;;3.17;;
66751;SDS011;53663;42.676;23.238;2023-04-24T13:06:27;5.20;;;3.33;;
66751;SDS011;53663;42.676;23.238;2023-04-24T13:08:53;5.70;;;3.20;;
66751;SDS011;53663;42.676;23.238;2023-04-24T13:11:20;3.97;;;2.78;;
66751;SDS011;53663;42.676;23.238;2023-04-24T13:13:46;6.05;;;3.33;;
66751;SDS011;53663;42.676;23.238;2023-04-24T13:16:12;5.20;;;2.92;;
66751;SDS011;53663;42.676;23.238;2023-04-24T13:18:37;6.40;;;3.03;;
66751;SDS011;53663;42.676;23.238;2023-04-24T13:21:03;7.15;;;3.20;;
66751;SDS011;53663;42.676;23.238;2023-04-24T13:23:28;4.72;;;2.88;;
66751;SDS011;53663;42.676;23.238;2023-04-24T13:25:54;4.22;;;2.63;;
66751;SDS011;53663;42.676;23.238;2023-04-24T13:28:22;5.72;;;2.80;;
66751;SDS011;53663;42.676;23.238;2023-04-24T13:30:49;7.03;;;2.83;;
66751;SDS011;53663;42.676;23.238;2023-04-24T13:33:15;9.57;;;2.78;;
66751;SDS011;53663;42.676;23.238;2023-04-24T13:35:40;5.38;;;2.70;;
66751;SDS011;53663;42.676;23.238;2023-04-24T13:38:06;4.30;;;2.50;;
66751;SDS011;53663;42.676;23.238;2023-04-24T13:40:31;6.72;;;2.72;;
66751;SDS011;53663;42.676;23.238;2023-04-24T13:42:58;5.20;;;2.70;;
66751;SDS011;53663;42.676;23.238;2023-04-24T13:45:23;5.95;;;2.90;;
66751;SDS011;53663;42.676;23.238;2023-04-24T13:47:49;5.72;;;2.50;;
66751;SDS011;53663;42.676;23.238;2023-04-24T13:50:14;8.07;;;2.90;;
66751;SDS011;53663;42.676;23.238;2023-04-24T13:52:40;9.60;;;2.97;;
66751;SDS011;53663;42.676;23.238;2023-04-24T13:55:06;6.93;;;2.80;;
66751;SDS011;53663;42.676;23.238;2023-04-24T13:57:32;4.10;;;2.63;;
66751;SDS011;53663;42.676;23.238;2023-04-24T13:59:57;6.13;;;2.65;;
66751;SDS011;53663;42.676;23.238;2023-04-24T14:02:27;4.45;;;2.65;;
66751;SDS011;53663;42.676;23.238;2023-04-24T14:04:52;7.15;;;2.80;;
66751;SDS011;53663;42.676;23.238;2023-04-24T14:07:18;6.38;;;3.10;;
66751;SDS011;53663;42.676;23.238;2023-04-24T14:09:43;6.07;;;3.05;;
66751;SDS011;53663;42.676;23.238;2023-04-24T14:12:09;5.35;;;2.53;;
66751;SDS011;53663;42.676;23.238;2023-04-24T14:14:34;5.05;;;2.35;;
66751;SDS011;53663;42.676;23.238;2023-04-24T14:17:00;5.32;;;2.50;;
66751;SDS011;53663;42.676;23.238;2023-04-24T14:19:25;5.25;;;2.42;;
66751;SDS011;53663;42.676;23.238;2023-04-24T14:21:51;6.97;;;2.60;;
66751;SDS011;53663;42.676;23.238;2023-04-24T14:24:16;3.80;;;2.30;;
66751;SDS011;53663;42.676;23.238;2023-04-24T14:26:42;4.68;;;2.72;;
66751;SDS011;53663;42.676;23.238;2023-04-24T14:29:07;9.07;;;2.80;;
66751;SDS011;53663;42.676;23.238;2023-04-24T14:31:33;4.88;;;2.65;;
66751;SDS011;53663;42.676;23.238;2023-04-24T14:33:58;7.85;;;2.70;;
66751;SDS011;53663;42.676;23.238;2023-04-24T14:36:24;8.73;;;2.63;;
66751;SDS011;53663;42.676;23.238;2023-04-24T14:38:49;5.63;;;2.70;;
66751;SDS011;53663;42.676;23.238;2023-04-24T14:41:15;9.70;;;2.55;;
66751;SDS011;53663;42.676;23.238;2023-04-24T14:43:40;5.40;;;2.58;;
66751;SDS011;53663;42.676;23.238;2023-04-24T14:46:06;7.85;;;2.97;;
66751;SDS011;53663;42.676;23.238;2023-04-24T14:48:32;7.20;;;2.60;;
66751;SDS011;53663;42.676;23.238;2023-04-24T14:50:57;11.82;;;3.38;;
66751;SDS011;53663;42.676;23.238;2023-04-24T14:53:23;10.20;;;3.25;;
66751;SDS011;53663;42.676;23.238;2023-04-24T14:55:49;4.25;;;2.40;;
66751;SDS011;53663;42.676;23.238;2023-04-24T14:58:14;5.03;;;3.00;;
66751;SDS011;53663;42.676;23.238;2023-04-24T15:00:40;18.15;;;8.55;;
66751;SDS011;53663;42.676;23.238;2023-04-24T15:03:05;38.85;;;16.52;;